createdAt,value
2022-08-24T00:01:59.111Z,18.15
2022-08-24T00:04:26.601Z,18.00
2022-08-24T00:06:55.961Z,19.15
2022-08-24T00:09:23.422Z,20.70
2022-08-24T00:11:50.599Z,22.65
2022-08-24T00:14:18.532Z,23.75
2022-08-24T00:16:46.936Z,20.08
2022-08-24T00:19:14.367Z,17.27
2022-08-24T00:21:41.440Z,22.38
2022-08-24T00:24:09.678Z,19.08
2022-08-24T00:26:37.237Z,16.58
2022-08-24T00:29:07.615Z,21.48
2022-08-24T00:31:35.754Z,22.65
2022-08-24T00:34:03.144Z,28.98
2022-08-24T00:36:30.489Z,30.13
2022-08-24T00:38:57.897Z,22.25
2022-08-24T00:41:25.280Z,23.02
2022-08-24T00:44:02.137Z,25.50
2022-08-24T00:46:58.569Z,16.70
2022-08-24T00:49:39.375Z,23.10
2022-08-24T00:52:19.721Z,21.50
2022-08-24T00:54:51.566Z,18.77
2022-08-24T00:57:25.066Z,19.90
2022-08-24T00:59:56.822Z,19.38
2022-08-24T01:02:33.973Z,21.98
2022-08-24T01:05:06.423Z,22.55
2022-08-24T01:07:35.606Z,26.83
2022-08-24T01:10:08.557Z,21.85
2022-08-24T01:12:38.556Z,20.23
2022-08-24T01:15:08.214Z,25.10
2022-08-24T01:17:56.001Z,27.98
2022-08-24T01:20:26.354Z,18.60
2022-08-24T01:23:02.644Z,26.42
2022-08-24T01:25:34.954Z,28.60
2022-08-24T01:28:10.906Z,20.88
2022-08-24T01:30:38.963Z,36.23
2022-08-24T01:33:09.616Z,24.02
2022-08-24T01:35:39.335Z,26.42
2022-08-24T01:38:12.331Z,24.65
2022-08-24T01:40:45.356Z,30.95
2022-08-24T01:43:15.083Z,26.92
2022-08-24T01:45:43.418Z,18.13
2022-08-24T01:48:11.242Z,22.83
2022-08-24T01:50:38.569Z,22.80
2022-08-24T01:53:06.305Z,25.05
2022-08-24T01:55:35.088Z,27.13
2022-08-24T01:58:04.507Z,25.38
2022-08-24T02:00:32.746Z,29.02
2022-08-24T02:03:00.028Z,26.27
2022-08-24T02:05:29.154Z,30.83
2022-08-24T02:07:58.477Z,30.27
2022-08-24T02:10:28.210Z,27.85
2022-08-24T02:12:59.064Z,23.35
2022-08-24T02:15:28.069Z,30.45
2022-08-24T02:17:56.064Z,26.00
2022-08-24T02:20:24.135Z,36.70
2022-08-24T02:22:52.002Z,31.35
2022-08-24T02:25:20.969Z,21.17
2022-08-24T02:27:48.722Z,31.75
2022-08-24T02:30:16.965Z,33.75
2022-08-24T02:32:44.240Z,35.25
2022-08-24T02:35:12.066Z,33.63
2022-08-24T02:37:43.295Z,30.55
2022-08-24T02:40:14.653Z,42.55
2022-08-24T02:42:42.072Z,32.63
2022-08-24T02:45:10.503Z,31.30
2022-08-24T02:47:39.449Z,21.27
2022-08-24T02:50:12.547Z,28.15
2022-08-24T02:52:41.591Z,24.17
2022-08-24T02:55:12.349Z,26.02
2022-08-24T02:57:39.949Z,27.63
2022-08-24T03:00:11.725Z,29.40
2022-08-24T03:02:45.684Z,38.35
2022-08-24T03:05:14.308Z,29.48
2022-08-24T03:07:43.454Z,31.58
2022-08-24T03:10:11.837Z,25.73
2022-08-24T03:12:41.108Z,19.98
2022-08-24T03:15:10.679Z,18.92
2022-08-24T03:17:39.993Z,30.77
2022-08-24T03:20:17.305Z,26.75
2022-08-24T03:22:46.290Z,23.75
2022-08-24T03:25:16.161Z,27.38
2022-08-24T03:27:43.556Z,30.60
2022-08-24T03:30:12.973Z,26.80
2022-08-24T03:32:42.385Z,28.98
2022-08-24T03:35:11.848Z,25.88
2022-08-24T03:37:39.881Z,25.70
2022-08-24T03:40:12.170Z,29.65
2022-08-24T03:42:51.081Z,30.80
2022-08-24T03:45:19.446Z,21.40
2022-08-24T03:47:47.443Z,26.67
2022-08-24T03:50:15.192Z,18.15
2022-08-24T03:52:42.639Z,26.38
2022-08-24T03:55:11.499Z,23.13
2022-08-24T03:57:38.868Z,22.73
2022-08-24T04:00:10.237Z,20.13
2022-08-24T04:02:42.303Z,24.25
2022-08-24T04:05:14.276Z,24.73
2022-08-24T04:07:42.406Z,29.85
2022-08-24T04:10:11.390Z,36.90
2022-08-24T04:12:38.832Z,22.15
2022-08-24T04:15:08.367Z,22.60
2022-08-24T04:17:35.579Z,24.42
2022-08-24T04:20:06.806Z,25.67
2022-08-24T04:22:37.170Z,25.00
2022-08-24T04:25:09.340Z,30.23
2022-08-24T04:27:38.270Z,26.42
2022-08-24T04:30:06.189Z,28.77
2022-08-24T04:32:44.287Z,25.50
2022-08-24T04:35:11.801Z,23.90
2022-08-24T04:37:39.278Z,27.33
2022-08-24T04:40:08.265Z,20.80
2022-08-24T04:42:41.314Z,22.00
2022-08-24T04:45:09.342Z,25.58
2022-08-24T04:47:37.374Z,30.45
2022-08-24T04:50:05.172Z,33.70
2022-08-24T04:52:32.961Z,28.08
2022-08-24T04:55:00.879Z,31.10
2022-08-24T04:57:28.042Z,23.38
2022-08-24T04:59:58.230Z,27.42
2022-08-24T05:02:25.881Z,21.05
2022-08-24T05:04:57.979Z,22.95
2022-08-24T05:07:25.937Z,22.08
2022-08-24T05:09:53.148Z,26.60
2022-08-24T05:12:21.151Z,25.13
2022-08-24T05:14:59.921Z,24.77
2022-08-24T05:17:28.324Z,25.85
2022-08-24T05:19:55.618Z,20.48
2022-08-24T05:22:23.103Z,27.80
2022-08-24T05:24:54.313Z,20.42
2022-08-24T05:27:22.704Z,29.05
2022-08-24T05:29:54.246Z,31.90
2022-08-24T05:32:22.636Z,25.27
2022-08-24T05:34:52.310Z,39.17
2022-08-24T05:37:19.990Z,33.30
2022-08-24T05:40:11.575Z,32.33
2022-08-24T05:42:41.432Z,30.88
2022-08-24T05:45:09.319Z,33.25
2022-08-24T05:47:36.558Z,38.30
2022-08-24T05:50:12.550Z,29.60
2022-08-24T05:52:40.177Z,33.92
2022-08-24T05:55:08.651Z,37.28
2022-08-24T05:57:37.149Z,33.08
2022-08-24T06:00:18.119Z,34.60
2022-08-24T06:02:52.926Z,33.38
2022-08-24T06:05:21.663Z,40.58
2022-08-24T06:07:49.939Z,27.55
2022-08-24T06:10:35.883Z,34.80
2022-08-24T06:13:03.625Z,27.20
2022-08-24T06:15:31.386Z,24.92
2022-08-24T06:17:58.626Z,29.52
2022-08-24T06:20:25.894Z,38.63
2022-08-24T06:22:53.302Z,35.22
2022-08-24T06:25:41.146Z,31.83
2022-08-24T06:28:08.643Z,27.73
2022-08-24T06:30:35.962Z,28.40
2022-08-24T06:33:16.258Z,28.88
2022-08-24T06:35:47.761Z,34.13
2022-08-24T06:38:15.378Z,30.15
2022-08-24T06:40:45.948Z,35.15
2022-08-24T06:43:13.977Z,30.77
2022-08-24T06:45:48.625Z,44.97
2022-08-24T06:48:18.328Z,37.15
2022-08-24T06:50:47.916Z,30.00
2022-08-24T06:53:16.332Z,30.65
2022-08-24T06:55:49.252Z,32.13
2022-08-24T06:58:18.188Z,39.33
2022-08-24T07:00:45.897Z,35.63
2022-08-24T07:03:14.796Z,38.17
2022-08-24T07:05:58.087Z,32.42
2022-08-24T07:08:52.475Z,31.15
2022-08-24T07:11:20.837Z,37.03
2022-08-24T07:13:49.409Z,27.38
2022-08-24T07:16:21.181Z,35.53
2022-08-24T07:18:52.858Z,25.75
2022-08-24T07:21:22.135Z,27.80
2022-08-24T07:23:55.139Z,26.38
2022-08-24T07:26:25.603Z,31.85
2022-08-24T07:29:01.200Z,30.85
2022-08-24T07:31:35.569Z,26.52
2022-08-24T07:34:12.064Z,34.30
2022-08-24T07:36:44.636Z,31.98
2022-08-24T07:39:12.596Z,40.35
2022-08-24T07:44:31.137Z,45.33
2022-08-24T07:47:07.241Z,31.50
2022-08-24T07:49:48.150Z,37.03
2022-08-24T07:52:15.690Z,31.40
2022-08-24T07:54:43.676Z,33.20
2022-08-24T07:57:11.109Z,31.98
2022-08-24T07:59:38.648Z,29.98
2022-08-24T08:02:08.264Z,32.58
2022-08-24T08:04:36.080Z,34.03
2022-08-24T08:07:07.364Z,41.83
2022-08-24T08:09:39.635Z,39.88
2022-08-24T08:12:09.228Z,39.17
2022-08-24T08:14:40.161Z,35.17
2022-08-24T08:17:07.681Z,45.95
2022-08-24T08:19:35.383Z,43.85
2022-08-24T08:22:22.385Z,38.45
2022-08-24T08:25:09.804Z,40.78
2022-08-24T08:27:37.388Z,49.95
2022-08-24T08:30:06.625Z,41.22
2022-08-24T08:32:35.310Z,35.38
2022-08-24T08:35:03.169Z,34.63
2022-08-24T08:40:06.700Z,56.30
2022-08-24T08:42:50.310Z,51.05
2022-08-24T08:45:41.292Z,40.53
2022-08-24T08:48:50.023Z,45.55
2022-08-24T08:51:17.466Z,27.73
2022-08-24T08:53:53.155Z,46.88
2022-08-24T08:56:35.721Z,41.28
2022-08-24T08:59:36.318Z,42.78
2022-08-24T09:02:22.840Z,35.50
2022-08-24T09:05:32.972Z,57.75
2022-08-24T09:08:34.503Z,44.40
2022-08-24T09:11:32.960Z,54.20
2022-08-24T09:14:30.500Z,49.40
2022-08-24T09:17:34.874Z,49.47
2022-08-24T09:20:40.424Z,51.35
2022-08-24T09:23:44.562Z,54.10
2022-08-24T09:26:42.901Z,48.15
2022-08-24T09:29:22.716Z,37.65
2022-08-24T09:32:03.398Z,50.03
2022-08-24T09:34:43.497Z,47.35
2022-08-24T09:37:29.746Z,39.70
2022-08-24T09:40:00.073Z,50.20
2022-08-24T09:42:38.911Z,44.40
2022-08-24T09:45:36.755Z,45.70
2022-08-24T09:48:58.137Z,42.72
2022-08-24T09:51:29.096Z,50.72
2022-08-24T09:54:25.303Z,43.38
2022-08-24T09:57:25.202Z,44.72
2022-08-24T10:00:12.170Z,44.75
2022-08-24T10:03:12.423Z,40.72
2022-08-24T10:06:00.016Z,52.92
2022-08-24T10:11:25.736Z,39.38
2022-08-24T10:14:21.705Z,39.20
2022-08-24T10:17:09.867Z,43.80
2022-08-24T10:19:58.007Z,53.63
2022-08-24T10:22:56.349Z,43.20
2022-08-24T10:25:29.540Z,48.35
2022-08-24T10:28:32.555Z,40.30
2022-08-24T10:31:19.131Z,36.25
2022-08-24T10:34:18.577Z,31.95
2022-08-24T10:37:04.426Z,43.95
2022-08-24T10:39:47.566Z,51.80
2022-08-24T10:43:03.425Z,50.15
2022-08-24T10:46:15.764Z,38.88
2022-08-24T10:49:27.462Z,35.92
2022-08-24T10:52:27.185Z,51.83
2022-08-24T10:54:54.573Z,38.60
2022-08-24T10:57:35.241Z,42.40
2022-08-24T11:00:20.334Z,44.17
2022-08-24T11:03:10.663Z,45.42
2022-08-24T11:05:50.198Z,42.70
2022-08-24T11:08:22.251Z,53.40
2022-08-24T11:11:13.929Z,43.75
2022-08-24T11:14:01.189Z,31.55
2022-08-24T11:16:37.724Z,39.78
2022-08-24T11:19:13.179Z,37.83
2022-08-24T11:21:43.764Z,42.08
2022-08-24T11:24:26.824Z,28.73
2022-08-24T11:27:07.033Z,45.63
2022-08-24T11:29:59.548Z,37.45
2022-08-24T11:32:42.032Z,50.13
2022-08-24T11:35:20.044Z,34.85
2022-08-24T11:37:48.555Z,40.63
2022-08-24T11:40:18.014Z,35.70
2022-08-24T11:43:05.915Z,36.97
2022-08-24T11:45:36.653Z,43.95
2022-08-24T11:48:24.717Z,42.17
2022-08-24T11:51:12.598Z,27.73
2022-08-24T11:54:09.709Z,36.28
2022-08-24T11:57:03.381Z,38.72
2022-08-24T12:02:31.391Z,33.15
2022-08-24T12:05:17.233Z,36.88
2022-08-24T12:08:21.588Z,35.58
2022-08-24T12:10:51.833Z,32.40
2022-08-24T12:13:37.841Z,40.50
2022-08-24T12:16:22.014Z,36.22
2022-08-24T12:19:29.859Z,47.22
2022-08-24T12:22:01.011Z,55.67
2022-08-24T12:24:50.306Z,42.50
2022-08-24T12:27:25.759Z,44.58
2022-08-24T12:32:38.969Z,38.45
2022-08-24T12:35:10.270Z,42.15
2022-08-24T12:38:09.721Z,49.63
2022-08-24T12:40:52.600Z,53.53
2022-08-24T12:43:40.193Z,36.30
2022-08-24T12:46:10.969Z,45.72
2022-08-24T12:48:55.012Z,40.45
2022-08-24T12:51:56.486Z,33.40
2022-08-24T12:54:55.408Z,40.28
2022-08-24T12:57:54.082Z,41.22
2022-08-24T13:00:43.268Z,35.22
2022-08-24T13:03:31.668Z,38.22
2022-08-24T13:06:03.391Z,46.20
2022-08-24T13:08:36.068Z,48.25
2022-08-24T13:11:07.386Z,35.60
2022-08-24T13:14:07.398Z,45.58
2022-08-24T13:16:56.867Z,45.08
2022-08-24T13:19:26.905Z,50.40
2022-08-24T13:22:00.125Z,33.72
2022-08-24T13:24:30.718Z,38.22
2022-08-24T13:27:18.164Z,54.92
2022-08-24T13:29:50.162Z,45.75
2022-08-24T13:32:29.384Z,37.03
2022-08-24T13:34:59.596Z,30.88
2022-08-24T13:37:28.517Z,47.53
2022-08-24T13:40:18.053Z,47.40
2022-08-24T13:43:03.540Z,51.80
2022-08-24T13:46:04.810Z,40.17
2022-08-24T13:48:35.118Z,44.75
2022-08-24T13:51:55.085Z,45.28
2022-08-24T13:54:32.061Z,42.42
2022-08-24T13:57:02.058Z,31.73
2022-08-24T13:59:39.811Z,51.15
2022-08-24T14:02:18.642Z,42.10
2022-08-24T14:05:09.298Z,44.70
2022-08-24T14:08:14.604Z,49.63
2022-08-24T14:10:57.235Z,43.15
2022-08-24T14:13:51.756Z,39.10
2022-08-24T14:16:58.601Z,38.67
2022-08-24T14:22:16.547Z,31.05
2022-08-24T14:27:37.105Z,35.95
2022-08-24T14:30:19.601Z,45.85
2022-08-24T14:33:18.242Z,39.83
2022-08-24T14:36:19.140Z,38.88
2022-08-24T14:38:52.875Z,36.05
2022-08-24T14:41:33.919Z,34.83
2022-08-24T14:44:16.940Z,46.70
2022-08-24T14:47:02.409Z,41.83
2022-08-24T14:49:36.169Z,41.95
2022-08-24T14:52:23.536Z,41.78
2022-08-24T14:55:04.048Z,36.35
2022-08-24T14:58:10.106Z,35.80
2022-08-24T15:01:20.064Z,33.33
2022-08-24T15:04:34.018Z,40.45
2022-08-24T15:07:28.793Z,39.08
2022-08-24T15:09:58.654Z,35.40
2022-08-24T15:12:48.918Z,40.50
2022-08-24T15:15:27.259Z,44.00
2022-08-24T15:18:06.624Z,42.80
2022-08-24T15:20:44.399Z,32.53
2022-08-24T15:23:35.369Z,40.03
2022-08-24T15:26:09.554Z,42.88
2022-08-24T15:28:37.653Z,44.03
2022-08-24T15:31:26.066Z,47.85
2022-08-24T15:33:53.532Z,52.25
2022-08-24T15:36:20.818Z,46.75
2022-08-24T15:38:48.387Z,47.92
2022-08-24T15:41:29.547Z,42.55
2022-08-24T15:43:59.152Z,36.38
2022-08-24T15:46:40.602Z,42.75
2022-08-24T15:49:28.790Z,45.97
2022-08-24T15:52:03.528Z,35.83
2022-08-24T15:54:40.124Z,44.60
2022-08-24T15:57:27.621Z,40.40
2022-08-24T16:00:06.151Z,41.33
2022-08-24T16:02:38.777Z,31.20
2022-08-24T16:05:18.794Z,63.75
2022-08-24T16:08:09.590Z,34.72
2022-08-24T16:10:46.083Z,40.80
2022-08-24T16:13:19.739Z,25.75
2022-08-24T16:15:57.146Z,40.97
2022-08-24T16:18:28.130Z,37.92
2022-08-24T16:20:57.721Z,33.97
2022-08-24T16:23:33.592Z,41.35
2022-08-24T16:26:19.463Z,30.48
2022-08-24T16:28:47.349Z,28.20
2022-08-24T16:31:45.549Z,47.65
2022-08-24T16:34:23.467Z,43.83
2022-08-24T16:36:51.296Z,47.30
2022-08-24T16:39:18.437Z,45.40
2022-08-24T16:41:45.779Z,47.25
2022-08-24T16:44:13.498Z,34.05
2022-08-24T16:46:40.994Z,39.80
2022-08-24T16:49:08.795Z,45.25
2022-08-24T16:51:43.200Z,73.43
2022-08-24T16:54:13.104Z,50.25
2022-08-24T16:56:42.214Z,42.65
2022-08-24T16:59:19.099Z,50.70
2022-08-24T17:01:50.323Z,34.45
2022-08-24T17:04:18.082Z,44.53
2022-08-24T17:06:48.140Z,36.80
2022-08-24T17:09:18.454Z,37.67
2022-08-24T17:11:47.151Z,30.95
2022-08-24T17:14:15.995Z,35.35
2022-08-24T17:16:43.819Z,42.42
2022-08-24T17:19:18.727Z,36.50
2022-08-24T17:21:47.879Z,38.23
2022-08-24T17:24:20.914Z,31.95
2022-08-24T17:26:48.870Z,34.97
2022-08-24T17:29:19.615Z,38.33
2022-08-24T17:31:49.870Z,43.55
2022-08-24T17:34:21.288Z,52.65
2022-08-24T17:36:54.410Z,38.75
2022-08-24T17:39:25.602Z,42.25
2022-08-24T17:41:54.605Z,37.63
2022-08-24T17:44:25.101Z,44.53
2022-08-24T17:46:58.911Z,42.10
2022-08-24T17:49:28.647Z,44.45
2022-08-24T17:51:56.060Z,37.28
2022-08-24T17:54:23.773Z,36.42
2022-08-24T17:56:51.356Z,47.05
2022-08-24T17:59:30.025Z,57.58
2022-08-24T18:02:00.732Z,40.47
2022-08-24T18:04:30.664Z,43.88
2022-08-24T18:07:01.266Z,61.60
2022-08-24T18:09:37.177Z,48.58
2022-08-24T18:14:34.555Z,48.53
2022-08-24T18:17:05.530Z,34.75
2022-08-24T18:19:34.127Z,36.05
2022-08-24T18:22:02.135Z,39.55
2022-08-24T18:24:32.643Z,38.80
2022-08-24T18:27:03.763Z,45.47
2022-08-24T18:29:40.489Z,42.40
2022-08-24T18:32:10.245Z,29.23
2022-08-24T18:34:38.232Z,40.25
2022-08-24T18:37:05.846Z,36.20
2022-08-24T18:39:33.027Z,44.60
2022-08-24T18:42:03.294Z,37.20
2022-08-24T18:44:31.858Z,47.05
2022-08-24T18:46:59.498Z,32.00
2022-08-24T18:49:27.256Z,49.65
2022-08-24T18:51:54.677Z,46.30
2022-08-24T18:54:25.352Z,41.90
2022-08-24T18:56:52.987Z,46.40
2022-08-24T18:59:21.237Z,39.50
2022-08-24T19:02:09.938Z,50.83
2022-08-24T19:04:47.504Z,28.70
2022-08-24T19:07:15.162Z,39.17
2022-08-24T19:09:42.961Z,39.15
2022-08-24T19:12:10.615Z,53.22
2022-08-24T19:14:38.451Z,53.58
2022-08-24T19:17:06.966Z,53.45
2022-08-24T19:19:34.748Z,45.83
2022-08-24T19:22:02.842Z,34.15
2022-08-24T19:24:31.854Z,39.75
2022-08-24T19:27:01.964Z,34.95
2022-08-24T19:29:54.693Z,36.00
2022-08-24T19:32:23.240Z,45.78
2022-08-24T19:34:51.846Z,36.65
2022-08-24T19:37:20.158Z,41.38
2022-08-24T19:39:51.143Z,31.75
2022-08-24T19:42:19.505Z,35.88
2022-08-24T19:45:05.306Z,36.13
2022-08-24T19:47:34.537Z,42.72
2022-08-24T19:50:04.250Z,39.92
2022-08-24T19:52:32.657Z,40.05
2022-08-24T19:55:00.330Z,38.63
2022-08-24T19:57:33.963Z,42.35
2022-08-24T20:00:20.718Z,50.90
2022-08-24T20:02:50.022Z,39.72
2022-08-24T20:05:19.690Z,47.38
2022-08-24T20:07:47.741Z,34.92
2022-08-24T20:10:17.842Z,33.22
2022-08-24T20:12:45.812Z,41.63
2022-08-24T20:15:15.345Z,46.03
2022-08-24T20:17:42.963Z,46.65
2022-08-24T20:20:15.695Z,42.08
2022-08-24T20:22:42.854Z,36.78
2022-08-24T20:25:10.414Z,45.75
2022-08-24T20:27:38.437Z,48.70
2022-08-24T20:30:07.297Z,45.42
2022-08-24T20:32:35.969Z,42.83
2022-08-24T20:35:03.685Z,37.00
2022-08-24T20:37:32.744Z,32.30
2022-08-24T20:40:01.137Z,31.88
2022-08-24T20:42:31.604Z,49.13
2022-08-24T20:44:59.975Z,45.47
2022-08-24T20:47:27.845Z,40.45
2022-08-24T20:49:55.495Z,35.20
2022-08-24T20:52:22.816Z,46.00
2022-08-24T20:54:50.256Z,44.22
2022-08-24T20:57:19.475Z,47.25
2022-08-24T20:59:47.429Z,40.92
2022-08-24T21:02:14.831Z,52.42
2022-08-24T21:04:42.065Z,27.77
2022-08-24T21:07:11.625Z,35.38
2022-08-24T21:09:39.337Z,31.63
2022-08-24T21:12:07.479Z,33.08
2022-08-24T21:14:34.820Z,38.97
2022-08-24T21:17:04.815Z,25.58
2022-08-24T21:19:32.728Z,45.20
2022-08-24T21:21:59.896Z,38.08
2022-08-24T21:24:27.613Z,41.03
2022-08-24T21:26:55.170Z,40.28
2022-08-24T21:29:22.445Z,41.40
2022-08-24T21:32:08.589Z,32.70
2022-08-24T21:34:41.871Z,37.73
2022-08-24T21:37:15.574Z,33.25
2022-08-24T21:39:46.728Z,27.50
2022-08-24T21:42:16.941Z,36.83
2022-08-24T21:44:44.687Z,32.83
2022-08-24T21:47:11.965Z,42.53
2022-08-24T21:49:41.634Z,38.78
2022-08-24T21:52:08.891Z,31.40
2022-08-24T21:54:36.161Z,33.15
2022-08-24T21:57:05.855Z,42.28
2022-08-24T21:59:34.180Z,34.92
2022-08-24T22:02:01.877Z,33.80
2022-08-24T22:04:29.286Z,36.67
2022-08-24T22:06:56.846Z,24.23
2022-08-24T22:09:24.448Z,44.13
2022-08-24T22:11:51.804Z,27.45
2022-08-24T22:14:19.382Z,35.20
2022-08-24T22:16:46.534Z,26.30
2022-08-24T22:19:14.616Z,26.92
2022-08-24T22:21:47.905Z,31.90
2022-08-24T22:24:16.650Z,33.90
2022-08-24T22:26:45.198Z,27.40
2022-08-24T22:29:12.699Z,39.40
2022-08-24T22:31:42.102Z,30.80
2022-08-24T22:34:19.535Z,32.70
2022-08-24T22:36:49.421Z,32.33
2022-08-24T22:39:16.730Z,45.70
2022-08-24T22:41:44.026Z,36.53
2022-08-24T22:44:20.867Z,27.67
2022-08-24T22:46:55.614Z,34.72
2022-08-24T22:49:32.412Z,35.20
2022-08-24T22:51:59.689Z,33.20
2022-08-24T22:54:27.863Z,35.17
2022-08-24T22:56:56.714Z,31.75
2022-08-24T22:59:27.649Z,25.83
2022-08-24T23:01:57.120Z,28.73
2022-08-24T23:04:28.673Z,32.53
2022-08-24T23:06:56.267Z,26.20
2022-08-24T23:09:23.523Z,31.20
2022-08-24T23:11:52.393Z,26.38
2022-08-24T23:14:22.169Z,33.10
2022-08-24T23:16:50.020Z,28.15
2022-08-24T23:19:41.221Z,38.20
2022-08-24T23:22:11.903Z,29.75
2022-08-24T23:24:40.041Z,27.65
2022-08-24T23:27:09.230Z,24.80
2022-08-24T23:29:37.764Z,23.20
2022-08-24T23:32:05.255Z,24.45
2022-08-24T23:34:34.219Z,31.70
2022-08-24T23:37:02.753Z,32.47
2022-08-24T23:39:30.289Z,29.73
2022-08-24T23:41:57.874Z,27.88
2022-08-24T23:44:27.659Z,29.08
2022-08-24T23:46:56.321Z,29.35
2022-08-24T23:49:24.465Z,31.88
2022-08-24T23:51:52.676Z,26.17
2022-08-24T23:54:20.794Z,23.17
2022-08-24T23:56:49.280Z,27.70
2022-08-24T23:59:26.650Z,24.15
